Time;durP1;ratioP1;P1;durP2;ratioP2;P2;SDS_P1;SDS_P2;PMS_P1;PMS_P2;Temp;Humidity;BMP_temperature;BMP_pressure;BME280_temperature;BME280_humidity;BME280_pressure;Samples;Min_cycle;Max_cycle;Signal;HPM_P1;HPM_P2
2022/09/04 00:02:25;;;;;;;13.52;9.07;;;;;;;;;;4981840;28;20036;-75
2022/09/04 00:05:03;;;;;;;16.02;9.75;;;;;;;;;;4999960;28;20031;-79
2022/09/04 00:07:42;;;;;;;15.25;9.43;;;;;;;;;;4979873;28;20057;-78
2022/09/04 00:10:15;;;;;;;11.95;8.38;;;;;;;;;;4983220;28;20097;-72
2022/09/04 00:12:49;;;;;;;10.50;7.00;;;;;;;;;;4982719;28;20129;-76
2022/09/04 00:15:37;;;;;;;11.75;7.20;;;;;;;;;;4984452;28;20133;-78
2022/09/04 00:18:19;;;;;;;12.35;7.57;;;;;;;;;;4985402;28;20026;-75
2022/09/04 00:20:58;;;;;;;11.00;6.90;;;;;;;;;;4982129;28;20096;-72
2022/09/04 00:23:37;;;;;;;10.77;6.85;;;;;;;;;;4981001;28;20291;-77
2022/09/04 00:26:26;;;;;;;10.18;6.82;;;;;;;;;;4983500;28;20027;-79
2022/09/04 00:28:59;;;;;;;10.40;7.05;;;;;;;;;;4992556;28;20597;-79
2022/09/04 00:31:35;;;;;;;9.18;5.68;;;;;;;;;;4981793;28;20032;-77
2022/09/04 00:34:06;;;;;;;9.27;6.20;;;;;;;;;;4986610;28;20375;-75
2022/09/04 00:36:35;;;;;;;9.07;6.38;;;;;;;;;;4999898;28;20044;-72
2022/09/04 00:39:09;;;;;;;12.93;6.57;;;;;;;;;;4991784;28;20034;-72
2022/09/04 00:42:01;;;;;;;9.18;6.43;;;;;;;;;;4983528;28;20076;-78
2022/09/04 00:44:45;;;;;;;9.48;6.20;;;;;;;;;;4989888;28;20033;-79
2022/09/04 00:47:31;;;;;;;8.95;5.75;;;;;;;;;;4981101;28;20022;-74
2022/09/04 00:50:10;;;;;;;10.75;6.22;;;;;;;;;;4988074;28;20031;-75
2022/09/04 00:52:59;;;;;;;7.53;5.85;;;;;;;;;;4980932;28;20034;-78
2022/09/04 00:56:08;;;;;;;8.82;5.55;;;;;;;;;;4984273;28;20461;-79
2022/09/04 00:58:46;;;;;;;10.57;6.25;;;;;;;;;;4993639;28;20172;-72
2022/09/04 01:01:24;;;;;;;9.45;5.90;;;;;;;;;;4999281;28;20034;-77
2022/09/04 01:04:12;;;;;;;6.95;6.05;;;;;;;;;;4983203;28;20387;-75
2022/09/04 01:07:13;;;;;;;11.63;6.35;;;;;;;;;;4983910;28;20046;-79
2022/09/04 01:10:11;;;;;;;10.68;5.95;;;;;;;;;;4984769;28;20042;-79
2022/09/04 01:12:44;;;;;;;9.35;6.40;;;;;;;;;;4985382;28;20426;-72
2022/09/04 01:15:16;;;;;;;9.75;6.70;;;;;;;;;;4993725;28;20499;-78
2022/09/04 01:17:52;;;;;;;9.35;6.45;;;;;;;;;;4983312;28;20510;-79
2022/09/04 01:20:20;;;;;;;8.57;6.40;;;;;;;;;;4982703;28;20030;-79
2022/09/04 01:23:04;;;;;;;11.23;7.32;;;;;;;;;;4985948;28;20049;-75
2022/09/04 01:25:53;;;;;;;9.02;6.38;;;;;;;;;;5000858;28;20026;-78
2022/09/04 01:28:34;;;;;;;9.88;6.28;;;;;;;;;;4981848;28;20177;-78
2022/09/04 01:31:21;;;;;;;10.65;6.32;;;;;;;;;;5001660;28;20493;-78
2022/09/04 01:34:04;;;;;;;10.32;7.32;;;;;;;;;;4989403;28;20034;-76
2022/09/04 01:36:56;;;;;;;11.10;6.63;;;;;;;;;;5000319;28;20036;-74
2022/09/04 01:39:25;;;;;;;9.40;6.43;;;;;;;;;;4979372;28;20030;-78
2022/09/04 01:42:07;;;;;;;9.60;6.13;;;;;;;;;;4992132;28;20310;-77
2022/09/04 01:44:32;;;;;;;11.70;8.17;;;;;;;;;;4991063;28;20117;-77
2022/09/04 01:47:07;;;;;;;11.27;7.68;;;;;;;;;;4974534;28;20337;-77
2022/09/04 01:49:35;;;;;;;9.20;6.18;;;;;;;;;;5006098;28;20080;-79
2022/09/04 01:52:22;;;;;;;8.35;6.05;;;;;;;;;;4987050;28;20045;-78
2022/09/04 01:54:52;;;;;;;12.57;6.60;;;;;;;;;;4986502;28;20030;-75
2022/09/04 01:57:33;;;;;;;7.75;6.13;;;;;;;;;;5001956;28;20050;-78
2022/09/04 02:00:13;;;;;;;7.78;5.93;;;;;;;;;;4984457;28;20085;-75
2022/09/04 02:03:11;;;;;;;8.15;6.13;;;;;;;;;;4987478;28;20034;-76
2022/09/04 02:06:07;;;;;;;8.05;6.03;;;;;;;;;;4989205;28;20033;-78
2022/09/04 02:09:00;;;;;;;8.75;6.50;;;;;;;;;;4982743;28;20128;-75
2022/09/04 02:11:29;;;;;;;8.00;6.55;;;;;;;;;;5001476;28;20375;-79
2022/09/04 02:14:39;;;;;;;7.72;6.20;;;;;;;;;;4989392;28;20469;-78
2022/09/04 02:17:19;;;;;;;8.77;6.05;;;;;;;;;;4975758;28;20568;-75
2022/09/04 02:20:03;;;;;;;8.25;6.03;;;;;;;;;;4985614;28;20734;-75
2022/09/04 02:22:41;;;;;;;10.93;6.90;;;;;;;;;;4982472;28;20055;-72
2022/09/04 02:25:20;;;;;;;8.90;5.93;;;;;;;;;;4982044;28;20366;-76
2022/09/04 02:28:14;;;;;;;9.10;6.07;;;;;;;;;;4984850;28;20026;-75
2022/09/04 02:31:18;;;;;;;7.60;5.93;;;;;;;;;;4985891;28;20068;-76
2022/09/04 02:33:53;;;;;;;8.52;6.22;;;;;;;;;;4983348;28;20050;-78
2022/09/04 02:36:29;;;;;;;8.27;6.13;;;;;;;;;;4985010;28;20038;-72
2022/09/04 02:39:33;;;;;;;6.85;5.82;;;;;;;;;;4987599;28;20027;-78
2022/09/04 02:42:43;;;;;;;10.35;6.18;;;;;;;;;;4986284;28;20035;-78
2022/09/04 02:45:23;;;;;;;9.38;6.15;;;;;;;;;;4975968;28;20038;-75
2022/09/04 02:48:02;;;;;;;8.80;6.40;;;;;;;;;;4984659;28;20026;-73
2022/09/04 02:50:48;;;;;;;9.48;6.68;;;;;;;;;;4986243;28;20026;-77
2022/09/04 02:53:53;;;;;;;7.63;6.15;;;;;;;;;;4988765;28;20390;-79
2022/09/04 02:56:44;;;;;;;8.80;6.70;;;;;;;;;;4987550;28;20022;-79
2022/09/04 02:59:40;;;;;;;9.63;6.43;;;;;;;;;;4986307;28;20034;-74
2022/09/04 03:02:19;;;;;;;7.93;6.72;;;;;;;;;;4982856;28;20038;-76
2022/09/04 03:04:54;;;;;;;10.75;6.15;;;;;;;;;;4989495;28;20038;-79
2022/09/04 03:07:42;;;;;;;8.90;6.32;;;;;;;;;;4983755;28;20051;-76
2022/09/04 03:10:14;;;;;;;9.07;6.45;;;;;;;;;;4980481;28;20077;-72
2022/09/04 03:13:09;;;;;;;8.45;7.05;;;;;;;;;;4980138;28;20034;-78
2022/09/04 03:16:08;;;;;;;9.95;6.82;;;;;;;;;;4987505;28;20042;-72
2022/09/04 03:18:53;;;;;;;9.57;6.57;;;;;;;;;;4985563;28;20081;-78
2022/09/04 03:21:31;;;;;;;8.88;7.00;;;;;;;;;;4995482;28;20062;-76
2022/09/04 03:24:30;;;;;;;9.05;7.10;;;;;;;;;;5003152;28;20138;-75
2022/09/04 03:27:07;;;;;;;9.73;6.93;;;;;;;;;;4978849;28;20169;-78
2022/09/04 03:29:45;;;;;;;8.55;7.00;;;;;;;;;;4988356;28;20061;-78
2022/09/04 03:32:21;;;;;;;9.15;6.90;;;;;;;;;;4983602;28;21266;-79
2022/09/04 03:34:55;;;;;;;8.90;6.90;;;;;;;;;;4985762;28;20022;-79
2022/09/04 03:37:31;;;;;;;10.23;7.22;;;;;;;;;;4986734;28;20057;-79
2022/09/04 03:40:08;;;;;;;8.43;6.63;;;;;;;;;;4982658;28;20092;-75
2022/09/04 03:42:36;;;;;;;8.75;6.60;;;;;;;;;;4984334;28;20442;-73
2022/09/04 03:45:28;;;;;;;9.93;6.57;;;;;;;;;;4985186;28;20034;-72
2022/09/04 03:48:09;;;;;;;9.95;7.05;;;;;;;;;;4983253;28;20037;-75
2022/09/04 03:50:59;;;;;;;10.23;7.45;;;;;;;;;;4984886;28;20038;-79
2022/09/04 03:53:44;;;;;;;12.93;8.15;;;;;;;;;;4998677;28;20027;-78
2022/09/04 03:56:37;;;;;;;8.90;7.03;;;;;;;;;;4987228;28;20117;-79
2022/09/04 03:59:11;;;;;;;9.23;7.00;;;;;;;;;;4988149;28;20026;-78
2022/09/04 04:01:53;;;;;;;9.63;6.88;;;;;;;;;;4982854;28;20405;-78
2022/09/04 04:04:55;;;;;;;9.45;6.55;;;;;;;;;;4986111;28;20018;-73
2022/09/04 04:07:20;;;;;;;9.07;7.43;;;;;;;;;;4982298;28;20061;-78
2022/09/04 04:09:53;;;;;;;9.07;7.22;;;;;;;;;;4981451;28;20022;-75
2022/09/04 04:12:18;;;;;;;;;;;;;;;;;;4985436;28;20102;-79
2022/09/04 04:15:15;;;;;;;8.10;6.40;;;;;;;;;;4986708;28;20413;-78
2022/09/04 04:18:12;;;;;;;9.63;6.72;;;;;;;;;;4987206;28;20490;-78
2022/09/04 04:21:09;;;;;;;10.23;6.75;;;;;;;;;;4988160;28;20022;-79
2022/09/04 04:24:02;;;;;;;8.63;6.30;;;;;;;;;;4970423;28;20129;-79
2022/09/04 04:26:48;;;;;;;9.13;6.53;;;;;;;;;;4987637;28;20084;-78
2022/09/04 04:29:43;;;;;;;8.32;6.13;;;;;;;;;;4981444;28;20026;-77
2022/09/04 04:32:20;;;;;;;12.15;7.25;;;;;;;;;;4985722;28;20030;-79
2022/09/04 04:35:16;;;;;;;11.13;6.85;;;;;;;;;;4985950;28;20033;-75
2022/09/04 04:37:50;;;;;;;9.65;6.60;;;;;;;;;;4982325;28;20030;-79
2022/09/04 04:40:21;;;;;;;7.90;6.25;;;;;;;;;;4977160;28;20065;-74
2022/09/04 04:42:56;;;;;;;9.82;6.97;;;;;;;;;;5001925;28;20037;-79
2022/09/04 04:45:50;;;;;;;9.82;7.20;;;;;;;;;;4982943;28;20030;-72
2022/09/04 04:48:38;;;;;;;10.25;7.20;;;;;;;;;;4986567;28;20030;-78
2022/09/04 04:51:09;;;;;;;8.80;7.05;;;;;;;;;;4981786;28;20445;-78
2022/09/04 04:53:46;;;;;;;9.23;6.85;;;;;;;;;;4983949;28;20475;-78
2022/09/04 04:56:21;;;;;;;9.75;6.85;;;;;;;;;;4986250;28;20049;-79
2022/09/04 04:58:54;;;;;;;9.48;7.22;;;;;;;;;;4998196;28;20034;-78
2022/09/04 05:01:35;;;;;;;12.38;7.47;;;;;;;;;;4976485;28;20376;-73
2022/09/04 05:04:19;;;;;;;8.75;6.53;;;;;;;;;;4988949;28;20030;-72
2022/09/04 05:06:50;;;;;;;10.05;6.88;;;;;;;;;;4996157;28;20061;-75
2022/09/04 05:09:33;;;;;;;9.65;6.53;;;;;;;;;;4979558;28;20965;-78
2022/09/04 05:12:18;;;;;;;;;;;;;;;;;;4985243;28;20047;-76
2022/09/04 05:15:10;;;;;;;11.32;6.68;;;;;;;;;;4983630;28;19917;-72
2022/09/04 05:17:54;;;;;;;18.15;6.85;;;;;;;;;;4993680;28;20034;-74
2022/09/04 05:20:37;;;;;;;9.38;6.90;;;;;;;;;;4986626;28;20034;-78
2022/09/04 05:23:21;;;;;;;;;;;;;;;;;;4982300;28;20109;-72
2022/09/04 05:25:56;;;;;;;;;;;;;;;;;;4983764;28;20380;-76
2022/09/04 05:28:34;;;;;;;9.45;6.47;;;;;;;;;;4985534;28;19925;-75
2022/09/04 05:31:28;;;;;;;9.00;7.20;;;;;;;;;;5000805;28;20019;-73
2022/09/04 05:34:15;;;;;;;9.13;6.72;;;;;;;;;;4981023;28;20034;-72
2022/09/04 05:37:06;;;;;;;18.33;7.00;;;;;;;;;;4991301;28;20034;-76
2022/09/04 05:40:05;;;;;;;11.95;7.40;;;;;;;;;;4978652;28;20030;-77
2022/09/04 05:42:40;;;;;;;8.98;6.53;;;;;;;;;;4978708;28;20041;-78
2022/09/04 05:45:14;;;;;;;8.43;6.18;;;;;;;;;;4981582;28;20038;-79
2022/09/04 05:48:20;;;;;;;9.45;6.68;;;;;;;;;;4993995;28;20034;-78
2022/09/04 05:50:59;;;;;;;8.55;6.40;;;;;;;;;;4982498;28;20042;-79
2022/09/04 05:53:49;;;;;;;9.85;6.80;;;;;;;;;;4975826;28;20025;-75
2022/09/04 05:56:51;;;;;;;8.57;6.40;;;;;;;;;;4981867;28;20102;-76
2022/09/04 05:59:23;;;;;;;8.95;6.72;;;;;;;;;;4977838;28;20081;-78
2022/09/04 06:02:03;;;;;;;8.55;7.28;;;;;;;;;;4977450;28;20133;-75
2022/09/04 06:05:07;;;;;;;9.45;6.72;;;;;;;;;;4979493;28;20041;-78
2022/09/04 06:07:59;;;;;;;9.10;7.03;;;;;;;;;;4983195;28;20442;-79
2022/09/04 06:10:27;;;;;;;9.98;6.53;;;;;;;;;;4984035;28;20037;-75
2022/09/04 06:13:17;;;;;;;8.82;6.78;;;;;;;;;;4983339;28;20618;-79
2022/09/04 06:15:54;;;;;;;10.77;6.70;;;;;;;;;;4984647;28;20030;-72
2022/09/04 06:18:35;;;;;;;9.20;7.63;;;;;;;;;;4988315;28;20039;-75
2022/09/04 06:21:40;;;;;;;8.18;6.63;;;;;;;;;;5004108;28;20031;-75
2022/09/04 06:24:26;;;;;;;8.20;6.60;;;;;;;;;;5006988;28;20022;-78
2022/09/04 06:27:06;;;;;;;7.97;6.65;;;;;;;;;;4985905;28;20512;-75
2022/09/04 06:29:38;;;;;;;8.98;7.13;;;;;;;;;;4982158;28;20044;-77
2022/09/04 06:32:18;;;;;;;9.85;6.47;;;;;;;;;;4989208;28;20030;-73
2022/09/04 06:35:08;;;;;;;9.88;7.10;;;;;;;;;;4987677;28;20034;-73
2022/09/04 06:37:39;;;;;;;9.65;6.93;;;;;;;;;;5004269;28;20035;-77
2022/09/04 06:40:37;;;;;;;9.43;6.65;;;;;;;;;;4998732;28;20030;-75
2022/09/04 06:43:26;;;;;;;8.57;6.68;;;;;;;;;;4989235;28;20038;-75
2022/09/04 06:46:14;;;;;;;8.63;6.47;;;;;;;;;;5005333;28;20033;-77
2022/09/04 06:48:53;;;;;;;9.20;6.85;;;;;;;;;;4976183;28;20035;-77
2022/09/04 06:51:37;;;;;;;9.82;6.45;;;;;;;;;;4982303;28;20121;-76
2022/09/04 06:54:23;;;;;;;9.63;7.38;;;;;;;;;;4983892;28;20168;-72
2022/09/04 06:57:18;;;;;;;7.63;6.40;;;;;;;;;;4984315;28;20474;-73
2022/09/04 06:59:56;;;;;;;8.55;6.80;;;;;;;;;;4999784;28;20466;-77
2022/09/04 07:02:51;;;;;;;9.95;7.18;;;;;;;;;;4990743;28;20026;-75
2022/09/04 07:05:21;;;;;;;9.23;7.28;;;;;;;;;;4993791;28;20026;-79
2022/09/04 07:08:10;;;;;;;11.30;7.78;;;;;;;;;;4991326;28;20081;-78
2022/09/04 07:10:44;;;;;;;13.07;7.20;;;;;;;;;;4984292;28;20147;-73
2022/09/04 07:13:22;;;;;;;9.32;8.25;;;;;;;;;;4991509;28;20062;-75
2022/09/04 07:15:47;;;;;;;10.00;7.03;;;;;;;;;;4987550;28;20034;-76
2022/09/04 07:18:54;;;;;;;10.15;6.10;;;;;;;;;;5001572;28;20049;-76
2022/09/04 07:21:47;;;;;;;9.80;7.80;;;;;;;;;;4983007;28;20501;-74
2022/09/04 07:24:17;;;;;;;10.23;8.27;;;;;;;;;;4993334;28;20084;-72
2022/09/04 07:27:05;;;;;;;11.32;7.45;;;;;;;;;;4988898;28;20038;-77
2022/09/04 07:29:42;;;;;;;10.55;8.15;;;;;;;;;;4992584;28;20033;-77
2022/09/04 07:32:19;;;;;;;10.90;8.52;;;;;;;;;;5007000;28;20030;-72
2022/09/04 07:34:50;;;;;;;10.30;7.82;;;;;;;;;;4989578;28;20041;-79
2022/09/04 07:37:30;;;;;;;10.82;8.07;;;;;;;;;;4992492;28;20041;-78
2022/09/04 07:40:17;;;;;;;11.10;7.75;;;;;;;;;;4982130;28;20034;-77
2022/09/04 07:43:04;;;;;;;11.57;8.32;;;;;;;;;;5005030;28;20463;-73
2022/09/04 07:45:37;;;;;;;12.88;9.27;;;;;;;;;;4985895;28;20037;-85
2022/09/04 07:48:33;;;;;;;9.77;7.70;;;;;;;;;;4988328;28;20037;-77
2022/09/04 07:51:09;;;;;;;10.25;7.70;;;;;;;;;;4984367;28;20549;-73
2022/09/04 07:54:03;;;;;;;10.68;9.00;;;;;;;;;;4985283;28;20065;-75
2022/09/04 07:56:43;;;;;;;10.23;8.35;;;;;;;;;;4988668;28;20026;-76
2022/09/04 07:59:20;;;;;;;10.75;8.80;;;;;;;;;;4991800;28;20086;-73
2022/09/04 08:01:52;;;;;;;10.32;8.38;;;;;;;;;;4987771;28;20359;-76
2022/09/04 08:04:42;;;;;;;9.35;8.35;;;;;;;;;;5006215;28;20026;-76
2022/09/04 08:07:47;;;;;;;13.07;9.15;;;;;;;;;;4989541;28;20043;-75
2022/09/04 08:10:26;;;;;;;11.98;9.23;;;;;;;;;;5008779;28;20026;-73
2022/09/04 08:13:17;;;;;;;12.52;8.95;;;;;;;;;;5008152;28;20037;-78
2022/09/04 08:16:18;;;;;;;11.40;8.82;;;;;;;;;;4997058;28;20045;-73
2022/09/04 08:18:52;;;;;;;10.98;8.85;;;;;;;;;;4986292;28;20401;-78
2022/09/04 08:21:33;;;;;;;15.15;10.13;;;;;;;;;;4987577;28;20025;-86
2022/09/04 08:24:07;;;;;;;10.50;8.23;;;;;;;;;;4996777;28;20037;-78
2022/09/04 08:26:32;;;;;;;12.45;7.80;;;;;;;;;;4985756;28;20037;-85
2022/09/04 08:29:19;;;;;;;11.00;8.65;;;;;;;;;;4992173;28;20037;-79
2022/09/04 08:32:22;;;;;;;10.13;8.15;;;;;;;;;;4989811;28;20371;-76
2022/09/04 08:34:51;;;;;;;9.73;8.38;;;;;;;;;;4985686;28;20551;-78
2022/09/04 08:37:47;;;;;;;11.15;8.10;;;;;;;;;;5002881;28;20558;-75
2022/09/04 08:40:23;;;;;;;9.00;6.88;;;;;;;;;;4985767;28;20110;-80
2022/09/04 08:43:39;;;;;;;9.73;6.70;;;;;;;;;;4999884;28;20029;-86
2022/09/04 08:46:21;;;;;;;9.45;6.30;;;;;;;;;;4966188;28;20046;-79
2022/09/04 08:49:11;;;;;;;8.23;5.93;;;;;;;;;;4986572;28;20113;-83
2022/09/04 08:52:17;;;;;;;7.75;5.60;;;;;;;;;;4998160;28;20460;-78
2022/09/04 08:54:55;;;;;;;8.60;6.68;;;;;;;;;;4985215;28;20470;-75
2022/09/04 08:57:38;;;;;;;8.10;6.10;;;;;;;;;;4998462;28;20173;-75
2022/09/04 09:00:19;;;;;;;8.50;5.85;;;;;;;;;;4969613;28;20027;-78
2022/09/04 09:03:17;;;;;;;9.10;6.75;;;;;;;;;;4994805;28;20064;-84
2022/09/04 09:06:07;;;;;;;8.45;6.70;;;;;;;;;;4966890;28;20158;-79
2022/09/04 09:08:54;;;;;;;7.50;6.20;;;;;;;;;;4973645;28;20065;-75
2022/09/04 09:12:07;;;;;;;7.55;6.30;;;;;;;;;;4984515;28;20042;-77
2022/09/04 09:15:12;;;;;;;7.28;5.30;;;;;;;;;;4981879;28;20036;-80
2022/09/04 09:17:43;;;;;;;7.38;4.75;;;;;;;;;;4963929;28;20069;-83
2022/09/04 09:20:28;;;;;;;7.35;5.50;;;;;;;;;;4980383;28;20111;-77
2022/09/04 09:23:15;;;;;;;9.52;5.72;;;;;;;;;;4973960;28;20093;-82
2022/09/04 09:25:50;;;;;;;7.35;5.10;;;;;;;;;;4987357;28;20026;-85
2022/09/04 09:28:28;;;;;;;6.75;4.65;;;;;;;;;;4983933;28;20375;-86
2022/09/04 09:31:08;;;;;;;10.40;4.43;;;;;;;;;;4985214;28;20037;-85
2022/09/04 09:34:04;;;;;;;6.72;4.13;;;;;;;;;;4984404;28;20022;-77
2022/09/04 09:36:38;;;;;;;6.53;4.82;;;;;;;;;;4944255;28;20574;-82
2022/09/04 09:39:22;;;;;;;6.85;5.35;;;;;;;;;;5001805;28;20037;-79
2022/09/04 09:42:14;;;;;;;7.25;5.38;;;;;;;;;;4989806;28;20517;-74
2022/09/04 09:44:44;;;;;;;7.80;4.97;;;;;;;;;;4986115;28;20089;-77
2022/09/04 09:47:35;;;;;;;6.57;4.38;;;;;;;;;;5001998;28;20382;-80
2022/09/04 09:50:30;;;;;;;9.07;4.03;;;;;;;;;;4990349;28;20038;-75
2022/09/04 09:52:58;;;;;;;5.85;4.25;;;;;;;;;;4983894;28;20490;-82
2022/09/04 09:55:55;;;;;;;5.55;4.15;;;;;;;;;;4982603;28;20508;-78
2022/09/04 09:58:36;;;;;;;5.70;3.92;;;;;;;;;;4986836;28;20113;-79
2022/09/04 10:01:30;;;;;;;5.85;3.88;;;;;;;;;;4984811;28;20039;-79
2022/09/04 10:04:17;;;;;;;6.63;3.70;;;;;;;;;;4980983;28;20093;-79
2022/09/04 10:07:20;;;;;;;5.28;3.10;;;;;;;;;;5000804;28;20525;-79
2022/09/04 10:10:10;;;;;;;4.70;3.50;;;;;;;;;;4987994;28;20460;-83
2022/09/04 10:12:53;;;;;;;6.10;3.63;;;;;;;;;;4987276;28;20039;-75
2022/09/04 10:15:59;;;;;;;5.68;4.00;;;;;;;;;;4981909;28;20486;-76
2022/09/04 10:19:02;;;;;;;6.32;4.05;;;;;;;;;;4980193;28;20034;-78
2022/09/04 10:21:46;;;;;;;4.47;3.20;;;;;;;;;;4997545;28;20030;-78
2022/09/04 10:24:36;;;;;;;5.32;3.03;;;;;;;;;;5003156;28;20407;-79
2022/09/04 10:27:34;;;;;;;7.18;3.88;;;;;;;;;;5005324;28;20568;-80
2022/09/04 10:30:06;;;;;;;8.68;4.07;;;;;;;;;;4978318;28;20046;-85
2022/09/04 10:32:31;;;;;;;5.45;3.63;;;;;;;;;;4997825;28;20042;-78
2022/09/04 10:35:08;;;;;;;4.50;3.40;;;;;;;;;;4979635;28;20392;-78
2022/09/04 10:37:56;;;;;;;4.55;2.55;;;;;;;;;;4986171;28;20359;-78
2022/09/04 10:40:42;;;;;;;6.45;3.83;;;;;;;;;;4985567;28;20026;-75
2022/09/04 10:43:29;;;;;;;6.63;2.85;;;;;;;;;;4985036;28;20176;-78
2022/09/04 10:46:07;;;;;;;4.38;2.95;;;;;;;;;;4990274;28;20478;-80
2022/09/04 10:48:47;;;;;;;4.15;2.33;;;;;;;;;;4989746;28;20026;-75
2022/09/04 10:51:22;;;;;;;4.57;2.47;;;;;;;;;;4989093;28;20049;-77
2022/09/04 10:54:06;;;;;;;4.18;2.10;;;;;;;;;;5007386;28;20066;-75
2022/09/04 10:57:06;;;;;;;5.03;2.13;;;;;;;;;;5000034;28;21003;-77
2022/09/04 10:59:45;;;;;;;5.10;2.00;;;;;;;;;;4974089;28;20479;-84
2022/09/04 11:02:40;;;;;;;3.38;1.90;;;;;;;;;;4989822;28;20034;-83
2022/09/04 11:05:43;;;;;;;4.30;2.10;;;;;;;;;;4983252;28;20406;-75
2022/09/04 11:08:35;;;;;;;4.07;1.88;;;;;;;;;;4985475;28;20137;-78
2022/09/04 11:11:10;;;;;;;4.07;2.30;;;;;;;;;;5007972;28;20030;-77
2022/09/04 11:13:41;;;;;;;4.88;2.83;;;;;;;;;;4982691;28;20038;-75
2022/09/04 11:16:13;;;;;;;2.90;1.92;;;;;;;;;;5003101;28;20045;-74
2022/09/04 11:19:23;;;;;;;4.20;2.10;;;;;;;;;;4998126;28;20461;-79
2022/09/04 11:21:48;;;;;;;6.45;2.72;;;;;;;;;;4987174;28;21996;-77
2022/09/04 11:25:08;;;;;;;6.35;2.78;;;;;;;;;;4984405;28;20037;-78
2022/09/04 11:28:01;;;;;;;3.78;2.17;;;;;;;;;;4923988;29;20410;-82
2022/09/04 11:30:52;;;;;;;4.03;2.30;;;;;;;;;;4999513;28;20330;-80
2022/09/04 11:33:49;;;;;;;3.92;2.20;;;;;;;;;;4975171;28;20108;-79
2022/09/04 11:36:34;;;;;;;4.38;2.78;;;;;;;;;;4980432;28;20045;-77
2022/09/04 11:38:59;;;;;;;6.68;2.90;;;;;;;;;;4975412;28;20041;-79
2022/09/04 11:41:42;;;;;;;5.53;2.33;;;;;;;;;;4980787;28;20065;-78
2022/09/04 11:44:38;;;;;;;4.30;2.17;;;;;;;;;;4976303;28;20032;-79
2022/09/04 11:47:16;;;;;;;4.90;2.63;;;;;;;;;;4988114;28;20038;-78
2022/09/04 11:50:07;;;;;;;3.58;2.00;;;;;;;;;;4973964;28;20030;-84
2022/09/04 11:53:11;;;;;;;3.05;1.88;;;;;;;;;;4976844;28;20390;-78
2022/09/04 11:55:40;;;;;;;5.15;2.00;;;;;;;;;;4987500;28;20035;-78
2022/09/04 11:58:27;;;;;;;5.13;2.00;;;;;;;;;;4975007;28;20081;-79
2022/09/04 12:01:15;;;;;;;2.72;1.77;;;;;;;;;;4992687;28;20498;-79
2022/09/04 12:03:52;;;;;;;2.85;1.80;;;;;;;;;;4987947;28;20052;-80
2022/09/04 12:06:35;;;;;;;3.15;2.10;;;;;;;;;;4972324;28;20050;-77
2022/09/04 12:09:22;;;;;;;3.53;2.17;;;;;;;;;;4975549;28;20084;-76
2022/09/04 12:12:23;;;;;;;2.53;1.70;;;;;;;;;;4989203;28;20235;-79
2022/09/04 12:15:26;;;;;;;3.75;2.03;;;;;;;;;;4979319;28;20053;-76
2022/09/04 12:18:33;;;;;;;3.63;2.15;;;;;;;;;;4991214;28;20030;-85
2022/09/04 12:21:34;;;;;;;2.83;1.77;;;;;;;;;;4969711;28;20133;-79
2022/09/04 12:24:11;;;;;;;2.33;1.20;;;;;;;;;;4973235;28;20030;-84
2022/09/04 12:27:00;;;;;;;2.00;1.27;;;;;;;;;;4988237;28;20038;-79
2022/09/04 12:29:59;;;;;;;1.42;1.10;;;;;;;;;;4974003;28;20049;-81
2022/09/04 12:32:41;;;;;;;2.55;1.52;;;;;;;;;;4978449;28;20073;-79
2022/09/04 12:35:18;;;;;;;2.35;1.33;;;;;;;;;;4970033;28;20259;-85
2022/09/04 12:38:04;;;;;;;1.80;1.40;;;;;;;;;;4975611;28;20049;-79
2022/09/04 12:40:43;;;;;;;1.98;1.30;;;;;;;;;;4973741;28;20034;-79
2022/09/04 12:43:41;;;;;;;2.40;1.55;;;;;;;;;;4973841;28;20032;-79
2022/09/04 12:46:39;;;;;;;2.40;1.45;;;;;;;;;;4980920;28;20474;-85
2022/09/04 12:49:38;;;;;;;2.50;1.48;;;;;;;;;;4998413;28;20038;-79
2022/09/04 12:52:31;;;;;;;4.88;1.67;;;;;;;;;;4987020;28;20034;-79
2022/09/04 12:55:14;;;;;;;3.67;1.87;;;;;;;;;;4982279;28;20036;-88
2022/09/04 12:57:59;;;;;;;2.80;1.60;;;;;;;;;;4984810;28;20437;-80
2022/09/04 13:00:32;;;;;;;2.33;1.50;;;;;;;;;;4987057;28;20050;-81
2022/09/04 13:03:09;;;;;;;2.53;1.50;;;;;;;;;;5001746;28;20041;-86
2022/09/04 13:05:40;;;;;;;1.80;1.40;;;;;;;;;;4993788;28;20160;-79
2022/09/04 13:08:37;;;;;;;2.63;2.00;;;;;;;;;;4977273;28;20054;-80
2022/09/04 13:11:12;;;;;;;2.88;1.83;;;;;;;;;;4997381;28;20636;-78
2022/09/04 13:14:00;;;;;;;3.40;1.83;;;;;;;;;;4981403;28;20137;-80
2022/09/04 13:16:40;;;;;;;2.85;1.80;;;;;;;;;;4982999;28;20045;-79
2022/09/04 13:19:28;;;;;;;7.40;2.47;;;;;;;;;;4984161;28;20458;-87
2022/09/04 13:22:06;;;;;;;3.15;1.77;;;;;;;;;;4987246;28;20114;-78
2022/09/04 13:24:40;;;;;;;3.13;1.80;;;;;;;;;;5000934;28;20038;-76
2022/09/04 13:27:48;;;;;;;3.47;1.77;;;;;;;;;;5009964;28;20442;-81
2022/09/04 13:30:24;;;;;;;2.42;1.60;;;;;;;;;;4994488;28;20148;-75
2022/09/04 13:33:18;;;;;;;2.38;1.50;;;;;;;;;;4985898;28;20030;-85
2022/09/04 13:36:05;;;;;;;4.05;1.80;;;;;;;;;;4985090;28;20076;-78
2022/09/04 13:39:09;;;;;;;2.45;1.45;;;;;;;;;;4985558;28;20113;-78
2022/09/04 13:42:09;;;;;;;4.00;1.50;;;;;;;;;;4985741;28;20026;-87
2022/09/04 13:44:44;;;;;;;3.08;1.30;;;;;;;;;;4983944;28;20030;-79
2022/09/04 13:47:19;;;;;;;2.45;1.60;;;;;;;;;;5007455;28;20487;-80
2022/09/04 13:50:19;;;;;;;3.78;1.80;;;;;;;;;;4985330;28;20041;-80
2022/09/04 13:53:04;;;;;;;2.30;1.50;;;;;;;;;;4991880;28;20046;-80
2022/09/04 13:55:38;;;;;;;3.70;1.73;;;;;;;;;;4978204;28;20053;-75
2022/09/04 13:58:13;;;;;;;2.65;1.52;;;;;;;;;;4978960;28;20360;-77
2022/09/04 14:00:49;;;;;;;3.95;1.48;;;;;;;;;;4979824;28;20030;-79
2022/09/04 14:03:52;;;;;;;3.28;1.73;;;;;;;;;;5003153;28;20358;-78
2022/09/04 14:06:21;;;;;;;2.58;1.60;;;;;;;;;;4985444;28;20046;-76
2022/09/04 14:08:49;;;;;;;3.22;1.45;;;;;;;;;;4988221;28;20393;-80
2022/09/04 14:11:43;;;;;;;3.65;2.03;;;;;;;;;;4984222;28;20026;-81
2022/09/04 14:14:47;;;;;;;2.92;1.60;;;;;;;;;;4985243;28;20398;-81
2022/09/04 14:17:25;;;;;;;2.08;1.48;;;;;;;;;;4986647;28;20466;-85
2022/09/04 14:20:13;;;;;;;3.03;1.58;;;;;;;;;;4983322;28;20031;-80
2022/09/04 14:22:58;;;;;;;2.80;1.63;;;;;;;;;;4985421;28;20050;-76
2022/09/04 14:25:35;;;;;;;2.50;1.50;;;;;;;;;;4986458;28;20053;-77
2022/09/04 14:28:35;;;;;;;4.03;1.48;;;;;;;;;;5002513;28;20100;-77
2022/09/04 14:31:14;;;;;;;2.92;1.60;;;;;;;;;;4969917;28;20121;-81
2022/09/04 14:34:05;;;;;;;2.55;1.67;;;;;;;;;;4985993;28;20494;-81
2022/09/04 14:36:41;;;;;;;3.85;1.60;;;;;;;;;;4983588;28;20031;-81
2022/09/04 14:39:14;;;;;;;2.42;1.35;;;;;;;;;;4986314;28;20478;-80
2022/09/04 14:41:58;;;;;;;;;;;;;;;;;;5008357;28;20035;-78
2022/09/04 14:44:45;;;;;;;4.65;1.73;;;;;;;;;;4982768;28;20414;-78
2022/09/04 14:47:15;;;;;;;2.80;1.58;;;;;;;;;;4991315;28;20732;-81
2022/09/04 14:49:48;;;;;;;3.08;1.42;;;;;;;;;;4990454;28;20048;-87
2022/09/04 14:52:18;;;;;;;2.83;1.90;;;;;;;;;;4986312;28;20052;-81
2022/09/04 14:54:50;;;;;;;2.22;1.70;;;;;;;;;;4987098;28;20034;-80
2022/09/04 14:57:36;;;;;;;3.90;1.40;;;;;;;;;;4984216;28;20588;-80
2022/09/04 15:00:10;;;;;;;4.15;1.38;;;;;;;;;;4987012;28;20375;-76
2022/09/04 15:02:42;;;;;;;2.63;1.30;;;;;;;;;;5000870;28;20126;-78
2022/09/04 15:05:42;;;;;;;2.53;1.20;;;;;;;;;;4997337;28;20030;-80
2022/09/04 15:08:09;;;;;;;1.67;1.10;;;;;;;;;;4979305;28;20582;-77
2022/09/04 15:10:59;;;;;;;2.35;1.20;;;;;;;;;;4988986;28;20026;-78
2022/09/04 15:13:27;;;;;;;2.00;1.00;;;;;;;;;;4976378;28;20030;-78
2022/09/04 15:16:28;;;;;;;2.10;1.02;;;;;;;;;;4978510;28;20054;-79
2022/09/04 15:19:15;;;;;;;3.33;0.90;;;;;;;;;;4985196;28;20026;-85
2022/09/04 15:22:02;;;;;;;2.13;0.93;;;;;;;;;;4991900;28;20117;-89
2022/09/04 15:25:02;;;;;;;1.50;0.98;;;;;;;;;;4982113;28;20030;-77
2022/09/04 15:27:41;;;;;;;1.63;0.90;;;;;;;;;;4986303;28;20049;-75
2022/09/04 15:30:16;;;;;;;2.45;0.98;;;;;;;;;;4984606;28;20022;-80
2022/09/04 15:32:43;;;;;;;1.45;0.95;;;;;;;;;;4984752;28;20172;-77
2022/09/04 15:35:24;;;;;;;3.47;1.00;;;;;;;;;;4983539;28;20033;-75
2022/09/04 15:38:03;;;;;;;1.35;0.90;;;;;;;;;;4995875;28;20030;-77
2022/09/04 15:40:33;;;;;;;1.95;0.90;;;;;;;;;;4997682;28;20085;-80
2022/09/04 15:43:09;;;;;;;2.75;1.02;;;;;;;;;;4998884;28;20108;-78
2022/09/04 15:45:42;;;;;;;1.10;0.90;;;;;;;;;;4978502;28;20471;-78
2022/09/04 15:48:21;;;;;;;1.67;1.00;;;;;;;;;;4986094;28;20034;-76
2022/09/04 15:50:56;;;;;;;2.45;0.95;;;;;;;;;;4984290;28;20026;-79
2022/09/04 15:53:26;;;;;;;2.60;1.10;;;;;;;;;;4983122;28;20018;-78
2022/09/04 15:56:05;;;;;;;1.70;1.00;;;;;;;;;;4981814;28;20029;-84
2022/09/04 15:59:19;;;;;;;1.83;0.90;;;;;;;;;;4991094;28;20023;-76
2022/09/04 16:02:16;;;;;;;4.50;1.08;;;;;;;;;;4992398;28;20472;-79
2022/09/04 16:05:10;;;;;;;1.92;0.88;;;;;;;;;;4987873;28;20446;-87
2022/09/04 16:07:40;;;;;;;2.35;1.30;;;;;;;;;;4974007;28;20089;-77
2022/09/04 16:10:08;;;;;;;1.42;0.90;;;;;;;;;;4975736;28;20088;-78
2022/09/04 16:12:52;;;;;;;2.20;1.08;;;;;;;;;;4992067;28;20037;-79
2022/09/04 16:16:16;;;;;;;1.90;0.90;;;;;;;;;;4985924;28;20045;-78
2022/09/04 16:18:49;;;;;;;2.85;1.00;;;;;;;;;;4939754;28;20019;-77
2022/09/04 16:21:37;;;;;;;4.78;1.83;;;;;;;;;;4983193;28;20038;-78
2022/09/04 16:24:10;;;;;;;2.58;1.30;;;;;;;;;;4985230;28;20030;-78